createdAt,value
2022-08-17T00:00:34.995Z,14.63
2022-08-17T00:03:14.736Z,12.10
2022-08-17T00:05:44.856Z,10.07
2022-08-17T00:08:14.245Z,11.10
2022-08-17T00:10:42.958Z,11.65
2022-08-17T00:13:23.162Z,10.93
2022-08-17T00:15:50.215Z,11.55
2022-08-17T00:19:00.959Z,10.80
2022-08-17T00:21:10.676Z,10.60
2022-08-17T00:23:38.631Z,9.60
2022-08-17T00:26:14.325Z,10.73
2022-08-17T00:28:41.493Z,10.23
2022-08-17T00:31:10.497Z,11.15
2022-08-17T00:33:40.171Z,12.10
2022-08-17T00:36:07.913Z,10.90
2022-08-17T00:38:35.797Z,11.15
2022-08-17T00:41:07.471Z,11.65
2022-08-17T00:43:42.726Z,10.40
2022-08-17T00:46:22.309Z,11.00
2022-08-17T00:48:49.602Z,11.20
2022-08-17T00:51:31.080Z,10.13
2022-08-17T00:54:10.985Z,11.93
2022-08-17T00:56:46.025Z,12.13
2022-08-17T00:59:19.072Z,13.27
2022-08-17T01:01:48.306Z,10.02
2022-08-17T01:04:17.911Z,12.38
2022-08-17T01:06:46.920Z,11.40
2022-08-17T01:09:14.395Z,11.38
2022-08-17T01:11:41.496Z,14.15
2022-08-17T01:14:08.985Z,12.77
2022-08-17T01:16:37.353Z,11.05
2022-08-17T01:19:17.062Z,12.95
2022-08-17T01:22:11.752Z,12.05
2022-08-17T01:24:44.807Z,11.10
2022-08-17T01:27:13.701Z,10.85
2022-08-17T01:29:45.672Z,11.88
2022-08-17T01:32:12.847Z,12.98
2022-08-17T01:34:42.570Z,11.50
2022-08-17T01:37:12.694Z,12.23
2022-08-17T01:39:47.761Z,13.93
2022-08-17T01:42:21.460Z,14.38
2022-08-17T01:44:58.893Z,12.27
2022-08-17T01:47:25.939Z,12.40
2022-08-17T01:49:52.841Z,12.55
2022-08-17T01:52:21.948Z,14.30
2022-08-17T01:54:57.013Z,12.48
2022-08-17T01:57:23.922Z,12.18
2022-08-17T01:59:51.015Z,12.38
2022-08-17T02:02:30.442Z,12.95
2022-08-17T02:04:58.573Z,12.43
2022-08-17T02:07:27.050Z,11.65
2022-08-17T02:09:54.444Z,12.13
2022-08-17T02:12:38.186Z,12.38
2022-08-17T02:15:12.444Z,14.70
2022-08-17T02:17:40.772Z,11.55
2022-08-17T02:20:09.559Z,11.65
2022-08-17T02:22:39.431Z,11.73
2022-08-17T02:25:09.737Z,11.38
2022-08-17T02:27:38.659Z,13.13
2022-08-17T02:30:59.933Z,13.10
2022-08-17T02:32:58.989Z,13.05
2022-08-17T02:35:31.019Z,12.38
2022-08-17T02:37:58.173Z,12.55
2022-08-17T02:40:30.027Z,12.65
2022-08-17T02:43:04.201Z,12.40
2022-08-17T02:45:31.049Z,12.43
2022-08-17T02:47:57.885Z,12.05
2022-08-17T02:50:25.662Z,12.20
2022-08-17T02:53:02.274Z,12.95
2022-08-17T02:55:35.764Z,13.50
2022-08-17T02:58:03.683Z,14.38
2022-08-17T03:00:34.988Z,13.98
2022-08-17T03:03:06.520Z,13.85
2022-08-17T03:05:36.031Z,15.75
2022-08-17T03:08:05.192Z,14.85
2022-08-17T03:10:32.563Z,11.98
2022-08-17T03:13:00.003Z,13.23
2022-08-17T03:15:30.902Z,12.48
2022-08-17T03:17:58.868Z,13.05
2022-08-17T03:20:27.642Z,13.45
2022-08-17T03:23:01.784Z,14.52
2022-08-17T03:25:36.070Z,13.80
2022-08-17T03:28:05.118Z,15.70
2022-08-17T03:30:32.785Z,13.60
2022-08-17T03:33:02.446Z,17.08
2022-08-17T03:35:32.869Z,14.50
2022-08-17T03:38:04.050Z,14.80
2022-08-17T03:40:57.765Z,14.10
2022-08-17T03:43:20.850Z,13.88
2022-08-17T03:46:26.991Z,14.52
2022-08-17T03:49:12.562Z,12.95
2022-08-17T03:51:58.154Z,16.30
2022-08-17T03:54:43.627Z,12.80
2022-08-17T03:57:12.247Z,16.63
2022-08-17T03:59:42.742Z,15.93
2022-08-17T04:02:21.495Z,13.52
2022-08-17T04:04:52.146Z,12.98
2022-08-17T04:07:23.074Z,12.82
2022-08-17T04:09:51.206Z,12.20
2022-08-17T04:14:52.585Z,13.40
2022-08-17T04:17:26.860Z,13.35
2022-08-17T04:19:54.761Z,15.82
2022-08-17T04:22:31.431Z,16.30
2022-08-17T04:25:19.235Z,14.73
2022-08-17T04:27:46.084Z,16.40
2022-08-17T04:30:13.422Z,14.50
2022-08-17T04:33:05.951Z,15.20
2022-08-17T04:35:50.066Z,16.05
2022-08-17T04:38:19.893Z,14.10
2022-08-17T04:41:05.418Z,14.48
2022-08-17T04:43:36.394Z,13.73
2022-08-17T04:46:07.627Z,13.80
2022-08-17T04:48:38.228Z,15.25
2022-08-17T04:51:28.246Z,14.85
2022-08-17T04:54:02.659Z,13.38
2022-08-17T04:56:31.068Z,14.65
2022-08-17T04:59:00.867Z,13.60
2022-08-17T05:01:30.032Z,15.07
2022-08-17T05:03:59.535Z,15.73
2022-08-17T05:06:28.426Z,14.88
2022-08-17T05:08:56.949Z,14.93
2022-08-17T05:11:26.037Z,15.00
2022-08-17T05:13:54.382Z,15.13
2022-08-17T05:16:22.829Z,14.77
2022-08-17T05:18:50.439Z,16.23
2022-08-17T05:21:18.089Z,14.45
2022-08-17T05:23:47.726Z,14.98
2022-08-17T05:26:27.598Z,15.68
2022-08-17T05:28:59.577Z,16.67
2022-08-17T05:31:29.356Z,22.42
2022-08-17T05:33:56.840Z,28.23
2022-08-17T05:36:41.658Z,22.08
2022-08-17T05:39:16.803Z,18.63
2022-08-17T05:41:46.280Z,16.85
2022-08-17T05:44:17.766Z,18.90
2022-08-17T05:46:49.789Z,19.67
2022-08-17T05:49:21.577Z,16.52
2022-08-17T05:52:04.660Z,16.52
2022-08-17T05:54:57.971Z,16.77
2022-08-17T05:58:04.275Z,17.20
2022-08-17T06:00:47.865Z,18.27
2022-08-17T06:03:33.521Z,15.50
2022-08-17T06:06:35.976Z,17.45
2022-08-17T06:09:28.818Z,15.88
2022-08-17T06:12:35.772Z,14.85
2022-08-17T06:15:27.324Z,16.00
2022-08-17T06:17:59.019Z,15.02
2022-08-17T06:20:32.100Z,13.85
2022-08-17T06:23:08.211Z,12.50
2022-08-17T06:25:58.594Z,13.73
2022-08-17T06:28:38.403Z,12.50
2022-08-17T06:31:20.897Z,14.45
2022-08-17T06:33:48.088Z,11.77
2022-08-17T06:36:29.341Z,10.43
2022-08-17T06:39:26.808Z,11.27
2022-08-17T06:42:55.077Z,12.10
2022-08-17T06:45:20.079Z,10.30
2022-08-17T06:47:49.673Z,9.70
2022-08-17T06:50:43.995Z,10.77
2022-08-17T06:53:23.499Z,10.30
2022-08-17T06:55:50.272Z,9.13
2022-08-17T06:58:22.275Z,7.70
2022-08-17T07:00:56.643Z,8.93
2022-08-17T07:03:46.125Z,7.63
2022-08-17T07:06:21.572Z,6.57
2022-08-17T07:09:02.942Z,6.95
2022-08-17T07:11:39.723Z,9.00
2022-08-17T07:14:39.436Z,7.82
2022-08-17T07:17:13.516Z,6.20
2022-08-17T07:19:45.568Z,9.18
2022-08-17T07:22:15.240Z,9.93
2022-08-17T07:24:51.509Z,8.23
2022-08-17T07:27:23.282Z,7.85
2022-08-17T07:30:10.533Z,6.32
2022-08-17T07:33:00.995Z,8.98
2022-08-17T07:35:41.023Z,5.60
2022-08-17T07:38:24.691Z,6.22
2022-08-17T07:40:59.017Z,7.00
2022-08-17T07:43:27.704Z,7.57
2022-08-17T07:46:24.395Z,5.90
2022-08-17T07:49:07.908Z,5.88
2022-08-17T07:51:36.485Z,5.70
2022-08-17T07:54:27.100Z,6.53
2022-08-17T07:57:13.392Z,8.50
2022-08-17T08:00:16.184Z,7.90
2022-08-17T08:02:47.326Z,7.50
2022-08-17T08:05:48.742Z,8.02
2022-08-17T08:08:51.030Z,5.93
2022-08-17T08:11:31.137Z,7.20
2022-08-17T08:14:34.025Z,7.68
2022-08-17T08:17:06.781Z,6.10
2022-08-17T08:19:38.756Z,9.18
2022-08-17T08:22:11.306Z,5.55
2022-08-17T08:24:49.765Z,10.32
2022-08-17T08:27:44.472Z,6.15
2022-08-17T08:30:21.551Z,7.25
2022-08-17T08:32:51.235Z,9.43
2022-08-17T08:35:32.908Z,6.10
2022-08-17T08:38:06.012Z,6.25
2022-08-17T08:41:01.567Z,7.93
2022-08-17T08:43:36.102Z,7.78
2022-08-17T08:46:37.818Z,5.32
2022-08-17T08:50:07.453Z,5.55
2022-08-17T08:52:57.238Z,7.95
2022-08-17T08:55:54.790Z,6.35
2022-08-17T08:59:20.294Z,10.45
2022-08-17T09:01:56.261Z,4.30
2022-08-17T09:05:13.411Z,5.70
2022-08-17T09:07:49.781Z,9.13
2022-08-17T09:10:35.022Z,7.97
2022-08-17T09:13:13.847Z,8.48
2022-08-17T09:15:45.908Z,6.63
2022-08-17T09:19:01.701Z,5.30
2022-08-17T09:21:33.875Z,5.05
2022-08-17T09:24:06.957Z,3.03
2022-08-17T09:26:46.543Z,3.63
2022-08-17T09:29:17.560Z,5.70
2022-08-17T09:31:49.777Z,5.30
2022-08-17T09:34:31.905Z,6.82
2022-08-17T09:37:29.543Z,7.13
2022-08-17T09:40:19.659Z,4.63
2022-08-17T09:43:12.666Z,4.22
2022-08-17T09:45:46.291Z,4.85
2022-08-17T09:48:27.593Z,4.47
2022-08-17T09:51:07.043Z,3.65
2022-08-17T09:53:37.462Z,4.70
2022-08-17T09:56:47.037Z,3.58
2022-08-17T09:59:20.139Z,4.80
2022-08-17T10:02:04.809Z,5.60
2022-08-17T10:04:41.519Z,6.03
2022-08-17T10:07:36.512Z,4.50
2022-08-17T10:10:25.246Z,4.38
2022-08-17T10:13:20.009Z,4.75
2022-08-17T10:16:07.336Z,3.17
2022-08-17T10:19:02.142Z,6.38
2022-08-17T10:21:49.662Z,4.13
2022-08-17T10:25:21.067Z,2.90
2022-08-17T10:27:48.895Z,5.55
2022-08-17T10:30:23.342Z,3.38
2022-08-17T10:32:55.176Z,4.90
2022-08-17T10:35:44.493Z,7.70
2022-08-17T10:38:31.765Z,3.90
2022-08-17T10:41:19.399Z,5.25
2022-08-17T10:44:39.246Z,3.10
2022-08-17T10:47:04.399Z,5.10
2022-08-17T10:49:34.210Z,4.43
2022-08-17T10:52:24.078Z,4.25
2022-08-17T10:54:57.865Z,5.25
2022-08-17T10:57:36.953Z,4.13
2022-08-17T11:00:18.842Z,3.42
2022-08-17T11:02:51.119Z,3.05
2022-08-17T11:05:22.242Z,4.07
2022-08-17T11:07:58.588Z,2.72
2022-08-17T11:10:51.966Z,4.45
2022-08-17T11:13:45.766Z,4.38
2022-08-17T11:16:24.654Z,6.93
2022-08-17T11:19:29.207Z,7.15
2022-08-17T11:22:02.081Z,3.42
2022-08-17T11:24:44.746Z,3.22
2022-08-17T11:27:13.478Z,12.27
2022-08-17T11:30:01.759Z,7.35
2022-08-17T11:32:47.196Z,5.43
2022-08-17T11:35:21.043Z,3.58
2022-08-17T11:37:56.254Z,6.13
2022-08-17T11:40:54.655Z,8.50
2022-08-17T11:43:45.615Z,5.43
2022-08-17T11:46:51.656Z,10.90
2022-08-17T11:50:00.499Z,7.17
2022-08-17T11:52:50.088Z,9.57
2022-08-17T11:55:36.379Z,7.20
2022-08-17T11:58:29.764Z,4.22
2022-08-17T12:01:01.473Z,6.00
2022-08-17T12:03:31.843Z,2.78
2022-08-17T12:06:30.241Z,5.05
2022-08-17T12:09:18.761Z,7.13
2022-08-17T12:12:15.909Z,3.30
2022-08-17T12:17:40.218Z,3.45
2022-08-17T12:20:23.395Z,5.57
2022-08-17T12:22:57.513Z,3.80
2022-08-17T12:25:35.245Z,3.72
2022-08-17T12:28:05.108Z,2.85
2022-08-17T12:30:34.998Z,4.25
2022-08-17T12:33:02.511Z,3.55
2022-08-17T12:35:38.868Z,3.95
2022-08-17T12:38:26.720Z,5.47
2022-08-17T12:40:58.401Z,3.67
2022-08-17T12:43:31.028Z,4.28
2022-08-17T12:46:13.008Z,5.65
2022-08-17T12:48:58.799Z,5.13
2022-08-17T12:51:29.099Z,4.78
2022-08-17T12:53:56.386Z,4.00
2022-08-17T12:56:23.423Z,17.88
2022-08-17T12:58:54.431Z,6.00
2022-08-17T13:01:23.336Z,4.53
2022-08-17T13:03:53.512Z,4.18
2022-08-17T13:06:35.292Z,3.65
2022-08-17T13:09:19.529Z,4.05
2022-08-17T13:11:52.393Z,3.55
2022-08-17T13:14:19.942Z,3.85
2022-08-17T13:17:00.258Z,5.00
2022-08-17T13:19:40.313Z,4.57
2022-08-17T13:22:12.854Z,3.65
2022-08-17T13:24:52.973Z,5.82
2022-08-17T13:27:21.289Z,3.10
2022-08-17T13:29:53.453Z,4.45
2022-08-17T13:32:33.835Z,3.25
2022-08-17T13:35:08.363Z,2.88
2022-08-17T13:38:04.945Z,3.90
2022-08-17T13:40:49.974Z,3.08
2022-08-17T13:43:46.245Z,8.10
2022-08-17T13:46:26.609Z,3.03
2022-08-17T13:49:06.540Z,3.83
2022-08-17T13:51:42.840Z,5.55
2022-08-17T13:54:30.934Z,3.15
2022-08-17T13:57:02.458Z,4.57
2022-08-17T13:59:53.275Z,5.72
2022-08-17T14:02:21.154Z,4.60
2022-08-17T14:04:48.661Z,4.90
2022-08-17T14:10:05.926Z,3.83
2022-08-17T14:12:34.957Z,3.88
2022-08-17T14:15:02.499Z,2.90
2022-08-17T14:20:07.069Z,5.25
2022-08-17T14:22:37.260Z,4.90
2022-08-17T14:25:05.527Z,5.03
2022-08-17T14:27:41.564Z,3.83
2022-08-17T14:30:20.408Z,8.45
2022-08-17T14:32:52.032Z,6.00
2022-08-17T14:35:22.397Z,3.17
2022-08-17T14:37:50.463Z,6.07
2022-08-17T14:40:20.985Z,8.27
2022-08-17T14:42:48.287Z,9.32
2022-08-17T14:45:30.459Z,4.60
2022-08-17T14:48:01.591Z,4.05
2022-08-17T14:50:28.424Z,5.22
2022-08-17T14:52:58.084Z,3.63
2022-08-17T14:55:25.125Z,4.20
2022-08-17T14:57:52.116Z,5.27
2022-08-17T15:00:19.220Z,5.68
2022-08-17T15:02:48.165Z,6.93
2022-08-17T15:05:16.526Z,4.65
2022-08-17T15:07:44.509Z,7.15
2022-08-17T15:10:13.452Z,9.10
2022-08-17T15:12:41.504Z,4.25
2022-08-17T15:15:12.446Z,4.18
2022-08-17T15:17:44.519Z,3.65
2022-08-17T15:20:20.752Z,5.18
2022-08-17T15:22:55.290Z,3.97
2022-08-17T15:25:23.195Z,4.50
2022-08-17T15:32:50.885Z,5.28
2022-08-17T15:35:27.558Z,4.70
2022-08-17T15:38:04.579Z,4.47
2022-08-17T15:40:34.934Z,5.55
2022-08-17T15:43:12.668Z,4.32
2022-08-17T15:45:40.546Z,4.53
2022-08-17T15:48:07.526Z,3.00
2022-08-17T15:50:34.787Z,4.53
2022-08-17T15:53:02.401Z,4.85
2022-08-17T15:55:31.032Z,5.82
2022-08-17T15:57:57.891Z,4.97
2022-08-17T16:00:28.249Z,8.60
2022-08-17T16:03:46.198Z,4.28
2022-08-17T16:05:46.330Z,3.55
2022-08-17T16:08:18.502Z,4.65
2022-08-17T16:10:48.284Z,3.63
2022-08-17T16:13:17.663Z,5.78
2022-08-17T16:15:49.715Z,6.05
2022-08-17T16:18:31.024Z,5.47
2022-08-17T16:21:23.282Z,3.53
2022-08-17T16:23:53.533Z,5.43
2022-08-17T16:26:24.096Z,4.30
2022-08-17T16:28:52.023Z,4.93
2022-08-17T16:31:19.216Z,4.32
2022-08-17T16:34:15.987Z,7.05
2022-08-17T16:36:35.384Z,5.22
2022-08-17T16:39:02.259Z,4.50
2022-08-17T16:41:45.200Z,3.40
2022-08-17T16:44:17.403Z,6.07
2022-08-17T16:46:46.285Z,7.07
2022-08-17T16:49:24.477Z,9.10
2022-08-17T16:52:02.977Z,6.75
2022-08-17T16:54:30.064Z,5.75
2022-08-17T16:56:56.946Z,5.38
2022-08-17T16:59:31.127Z,5.38
2022-08-17T17:02:11.235Z,7.32
2022-08-17T17:04:48.377Z,6.40
2022-08-17T17:07:34.010Z,6.57
2022-08-17T17:10:12.945Z,5.07
2022-08-17T17:13:02.780Z,14.90
2022-08-17T17:15:39.454Z,12.43
2022-08-17T17:18:11.438Z,8.95
2022-08-17T17:20:57.136Z,5.68
2022-08-17T17:23:39.811Z,7.07
2022-08-17T17:26:25.697Z,5.72
2022-08-17T17:29:23.990Z,5.07
2022-08-17T17:32:13.711Z,7.25
2022-08-17T17:34:50.542Z,9.57
2022-08-17T17:37:24.497Z,6.55
2022-08-17T17:39:59.989Z,6.55
2022-08-17T17:42:32.258Z,7.28
2022-08-17T17:45:16.031Z,8.27
2022-08-17T17:47:47.476Z,7.80
2022-08-17T17:50:17.832Z,6.80
2022-08-17T17:53:41.501Z,6.70
2022-08-17T17:56:43.065Z,8.20
2022-08-17T17:59:26.759Z,5.22
2022-08-17T18:02:51.247Z,6.82
2022-08-17T18:05:31.551Z,8.80
2022-08-17T18:08:11.088Z,8.73
2022-08-17T18:10:55.749Z,5.05
2022-08-17T18:14:01.485Z,6.88
2022-08-17T18:16:31.979Z,5.45
2022-08-17T18:19:00.108Z,8.02
2022-08-17T18:21:37.721Z,4.85
2022-08-17T18:26:33.172Z,7.07
2022-08-17T18:29:01.211Z,7.37
2022-08-17T18:31:28.341Z,13.38
2022-08-17T18:34:46.040Z,16.60
2022-08-17T18:37:12.690Z,14.32
2022-08-17T18:39:45.002Z,12.90
2022-08-17T18:42:26.273Z,9.95
2022-08-17T18:44:55.308Z,8.85
2022-08-17T18:47:28.910Z,5.90
2022-08-17T18:49:58.781Z,5.85
2022-08-17T18:52:27.776Z,9.13
2022-08-17T18:55:20.195Z,6.90
2022-08-17T18:57:53.386Z,4.60
2022-08-17T19:00:32.696Z,6.95
2022-08-17T19:03:16.669Z,5.82
2022-08-17T19:05:55.665Z,7.65
2022-08-17T19:08:31.095Z,7.00
2022-08-17T19:11:05.284Z,5.38
2022-08-17T19:13:38.663Z,5.85
2022-08-17T19:16:11.764Z,5.65
2022-08-17T19:18:51.884Z,9.13
2022-08-17T19:21:23.895Z,5.75
2022-08-17T19:24:06.893Z,7.82
2022-08-17T19:26:54.200Z,5.60
2022-08-17T19:29:51.219Z,6.28
2022-08-17T19:32:22.301Z,5.47
2022-08-17T19:34:52.742Z,6.38
2022-08-17T19:37:32.452Z,6.63
2022-08-17T19:40:51.629Z,7.15
2022-08-17T19:43:36.127Z,7.47
2022-08-17T19:46:25.980Z,5.93
2022-08-17T19:49:02.534Z,7.82
2022-08-17T19:52:02.878Z,7.78
2022-08-17T19:54:39.933Z,7.88
2022-08-17T19:57:30.006Z,8.63
2022-08-17T20:00:07.096Z,7.30
2022-08-17T20:02:42.224Z,6.97
2022-08-17T20:05:16.944Z,6.53
2022-08-17T20:07:57.785Z,9.60
2022-08-17T20:11:03.593Z,7.85
2022-08-17T20:13:36.679Z,6.53
2022-08-17T20:16:07.330Z,9.50
2022-08-17T20:18:49.119Z,7.80
2022-08-17T20:21:23.840Z,7.72
2022-08-17T20:24:15.772Z,6.85
2022-08-17T20:26:58.114Z,6.70
2022-08-17T20:29:40.375Z,7.70
2022-08-17T20:32:18.236Z,7.13
2022-08-17T20:34:47.316Z,8.57
2022-08-17T20:37:14.417Z,8.50
2022-08-17T20:39:41.311Z,7.15
2022-08-17T20:42:20.227Z,7.20
2022-08-17T20:44:53.462Z,10.88
2022-08-17T20:47:32.030Z,7.50
2022-08-17T20:50:07.019Z,7.90
2022-08-17T20:52:51.636Z,7.40
2022-08-17T20:55:51.963Z,14.45
2022-08-17T20:58:29.865Z,8.02
2022-08-17T21:01:01.345Z,9.00
2022-08-17T21:03:52.064Z,9.05
2022-08-17T21:06:22.399Z,8.05
2022-08-17T21:09:24.711Z,7.32
2022-08-17T21:12:04.392Z,7.70
2022-08-17T21:15:05.871Z,7.50
2022-08-17T21:18:09.341Z,7.82
2022-08-17T21:21:15.373Z,7.60
2022-08-17T21:24:15.347Z,7.82
2022-08-17T21:27:20.873Z,8.93
2022-08-17T21:30:14.612Z,8.00
2022-08-17T21:35:53.192Z,9.68
2022-08-17T21:38:45.313Z,7.82
2022-08-17T21:41:27.391Z,8.27
2022-08-17T21:44:12.027Z,9.43
2022-08-17T21:46:46.669Z,7.90
2022-08-17T21:49:23.815Z,8.77
2022-08-17T21:52:45.670Z,9.35
2022-08-17T21:55:02.999Z,8.25
2022-08-17T21:57:33.819Z,8.25
2022-08-17T22:00:18.977Z,8.18
2022-08-17T22:03:00.487Z,9.43
2022-08-17T22:05:40.279Z,9.25
2022-08-17T22:08:31.717Z,7.85
2022-08-17T22:11:07.035Z,9.20
2022-08-17T22:13:38.907Z,8.35
2022-08-17T22:16:28.415Z,9.05
2022-08-17T22:18:59.824Z,8.68
2022-08-17T22:21:35.993Z,8.50
2022-08-17T22:24:16.562Z,9.05
2022-08-17T22:30:04.134Z,10.07
2022-08-17T22:32:59.137Z,9.88
2022-08-17T22:35:44.423Z,9.57
2022-08-17T22:38:29.891Z,8.48
2022-08-17T22:41:25.164Z,8.57
2022-08-17T22:44:01.748Z,9.57
2022-08-17T22:46:30.402Z,9.63
2022-08-17T22:51:48.909Z,8.57
2022-08-17T22:54:40.056Z,10.10
2022-08-17T22:57:33.915Z,12.45
2022-08-17T23:00:05.664Z,11.30
2022-08-17T23:02:50.267Z,10.13
2022-08-17T23:05:29.885Z,9.18
2022-08-17T23:08:07.834Z,8.70
2022-08-17T23:10:41.463Z,8.75
2022-08-17T23:13:18.432Z,8.95
2022-08-17T23:15:57.895Z,9.02
2022-08-17T23:18:31.106Z,9.20
2022-08-17T23:21:05.202Z,11.02
2022-08-17T23:23:44.219Z,8.88
2022-08-17T23:26:25.333Z,9.73
2022-08-17T23:29:00.576Z,9.88
2022-08-17T23:31:27.996Z,10.02
2022-08-17T23:34:09.295Z,11.43
2022-08-17T23:36:38.583Z,11.45
2022-08-17T23:39:09.239Z,9.30
2022-08-17T23:41:39.975Z,9.73
2022-08-17T23:44:07.235Z,10.75
2022-08-17T23:46:34.909Z,11.32
2022-08-17T23:49:03.243Z,10.30
2022-08-17T23:51:44.508Z,10.88
2022-08-17T23:54:37.677Z,10.77
2022-08-17T23:57:04.926Z,12.25
2022-08-17T23:59:34.929Z,11.20
